createdAt,value
2017-10-26T00:01:08.961Z,6.40
2017-10-26T00:03:35.079Z,9.83
2017-10-26T00:06:01.273Z,5.70
2017-10-26T00:08:27.441Z,6.13
2017-10-26T00:10:54.382Z,5.60
2017-10-26T00:13:20.572Z,5.80
2017-10-26T00:15:46.708Z,8.43
2017-10-26T00:18:12.925Z,4.87
2017-10-26T00:20:39.046Z,7.60
2017-10-26T00:23:05.192Z,4.60
2017-10-26T00:25:31.362Z,4.77
2017-10-26T00:27:57.544Z,5.63
2017-10-26T00:30:23.724Z,5.03
2017-10-26T00:32:49.842Z,5.23
2017-10-26T00:35:16.049Z,5.10
2017-10-26T00:37:43.016Z,4.97
2017-10-26T00:40:09.236Z,3.80
2017-10-26T00:42:35.404Z,4.60
2017-10-26T00:45:02.326Z,4.80
2017-10-26T00:47:28.456Z,6.93
2017-10-26T00:49:54.609Z,5.10
2017-10-26T00:52:20.833Z,5.00
2017-10-26T00:54:46.972Z,4.47
2017-10-26T00:57:13.127Z,3.60
2017-10-26T00:59:39.236Z,4.57
2017-10-26T01:02:06.177Z,4.70
2017-10-26T01:04:33.061Z,6.63
2017-10-26T01:06:59.239Z,4.43
2017-10-26T01:09:25.480Z,3.67
2017-10-26T01:11:52.374Z,3.93
2017-10-26T01:14:18.530Z,4.53
2017-10-26T01:16:44.751Z,3.60
2017-10-26T01:19:10.980Z,4.00
2017-10-26T01:21:37.069Z,3.77
2017-10-26T01:24:03.249Z,3.97
2017-10-26T01:26:30.433Z,3.47
2017-10-26T01:28:56.538Z,3.13
2017-10-26T01:31:22.826Z,4.07
2017-10-26T01:33:49.018Z,4.13
2017-10-26T01:36:15.132Z,7.10
2017-10-26T01:38:41.315Z,4.17
2017-10-26T01:41:07.500Z,2.60
2017-10-26T01:43:33.719Z,3.20
2017-10-26T01:45:59.857Z,3.17
2017-10-26T01:48:26.011Z,3.30
2017-10-26T01:50:52.128Z,3.53
2017-10-26T01:53:18.316Z,3.20
2017-10-26T01:55:44.489Z,3.20
2017-10-26T01:58:11.397Z,3.30
2017-10-26T02:00:37.618Z,3.50
2017-10-26T02:03:03.764Z,3.37
2017-10-26T02:05:29.998Z,3.73
2017-10-26T02:07:56.288Z,3.43
2017-10-26T02:10:22.431Z,3.00
2017-10-26T02:12:48.595Z,3.23
2017-10-26T02:15:14.803Z,3.93
2017-10-26T02:17:40.942Z,2.57
2017-10-26T02:20:07.091Z,2.60
2017-10-26T02:22:34.017Z,3.33
2017-10-26T02:25:00.139Z,2.63
2017-10-26T02:27:26.317Z,3.07
2017-10-26T02:30:04.821Z,2.83
2017-10-26T02:32:31.061Z,2.77
2017-10-26T02:34:57.210Z,2.87
2017-10-26T02:37:23.484Z,3.63
2017-10-26T02:39:50.430Z,5.30
2017-10-26T02:42:17.349Z,3.90
2017-10-26T02:44:43.495Z,2.60
2017-10-26T02:47:10.383Z,3.60
2017-10-26T02:49:36.589Z,3.17
2017-10-26T02:52:02.739Z,3.10
2017-10-26T02:54:28.868Z,3.10
2017-10-26T02:56:55.027Z,3.40
2017-10-26T02:59:21.170Z,3.63
2017-10-26T03:01:47.392Z,3.33
2017-10-26T03:04:14.393Z,3.47
2017-10-26T03:06:40.977Z,3.30
2017-10-26T03:09:07.896Z,3.33
2017-10-26T03:11:34.135Z,5.73
2017-10-26T03:14:01.164Z,3.40
2017-10-26T03:16:27.567Z,4.17
2017-10-26T03:18:53.757Z,9.30
2017-10-26T03:21:19.928Z,3.80
2017-10-26T03:23:46.014Z,3.00
2017-10-26T03:26:12.148Z,2.97
2017-10-26T03:28:38.310Z,4.23
2017-10-26T03:31:04.444Z,2.93
2017-10-26T03:33:30.691Z,3.60
2017-10-26T03:35:57.647Z,3.40
2017-10-26T03:38:24.574Z,3.00
2017-10-26T03:40:51.429Z,3.20
2017-10-26T03:43:17.711Z,3.00
2017-10-26T03:45:43.889Z,2.90
2017-10-26T03:48:10.017Z,10.30
2017-10-26T03:50:36.200Z,3.00
2017-10-26T03:53:02.364Z,2.90
2017-10-26T03:55:28.460Z,4.30
2017-10-26T03:57:54.692Z,3.30
2017-10-26T04:00:20.949Z,3.43
2017-10-26T04:02:47.145Z,2.70
2017-10-26T04:05:13.398Z,3.30
2017-10-26T04:07:40.224Z,5.30
2017-10-26T04:10:07.197Z,2.70
2017-10-26T04:12:33.326Z,2.97
2017-10-26T04:14:59.513Z,4.13
2017-10-26T04:17:26.435Z,3.50
2017-10-26T04:19:52.562Z,3.33
2017-10-26T04:22:18.773Z,3.37
2017-10-26T04:24:45.151Z,4.73
2017-10-26T04:27:12.173Z,2.83
2017-10-26T04:29:38.374Z,3.70
2017-10-26T04:32:04.604Z,3.60
2017-10-26T04:34:30.908Z,4.63
2017-10-26T04:36:57.023Z,6.47
2017-10-26T04:39:23.342Z,3.70
2017-10-26T04:41:49.512Z,4.10
2017-10-26T04:44:15.821Z,5.13
2017-10-26T04:46:41.981Z,4.10
2017-10-26T04:49:08.107Z,5.30
2017-10-26T04:51:34.321Z,5.00
2017-10-26T04:54:00.494Z,4.87
2017-10-26T04:56:27.465Z,4.97
2017-10-26T04:58:53.600Z,5.17
2017-10-26T05:01:19.814Z,7.27
2017-10-26T05:03:45.911Z,5.27
2017-10-26T05:06:12.875Z,4.33
2017-10-26T05:08:39.138Z,8.40
2017-10-26T05:11:05.369Z,10.03
2017-10-26T05:13:31.516Z,7.27
2017-10-26T05:15:57.714Z,4.57
2017-10-26T05:18:23.801Z,4.63
2017-10-26T05:20:49.939Z,5.20
2017-10-26T05:23:16.092Z,5.10
2017-10-26T05:25:42.319Z,5.50
2017-10-26T05:28:08.474Z,7.40
2017-10-26T05:30:34.615Z,5.60
2017-10-26T05:33:01.566Z,10.33
2017-10-26T05:35:27.729Z,10.43
2017-10-26T05:37:53.986Z,5.90
2017-10-26T05:40:20.113Z,5.10
2017-10-26T05:42:46.321Z,6.37
2017-10-26T05:45:12.532Z,5.63
2017-10-26T05:47:38.697Z,5.90
2017-10-26T05:50:04.853Z,8.07
2017-10-26T05:52:31.017Z,9.43
2017-10-26T05:54:57.219Z,10.40
2017-10-26T05:57:23.353Z,7.43
2017-10-26T05:59:49.487Z,6.93
2017-10-26T06:02:15.582Z,8.43
2017-10-26T06:04:41.770Z,8.63
2017-10-26T06:07:07.961Z,8.07
2017-10-26T06:09:34.188Z,10.43
2017-10-26T06:12:00.401Z,7.67
2017-10-26T06:14:26.614Z,10.43
2017-10-26T06:16:52.777Z,7.43
2017-10-26T06:19:19.567Z,10.37
2017-10-26T06:21:45.718Z,7.10
2017-10-26T06:24:11.887Z,11.33
2017-10-26T06:26:38.022Z,10.83
2017-10-26T06:29:04.940Z,12.30
2017-10-26T06:31:31.377Z,8.80
2017-10-26T06:33:57.581Z,8.30
2017-10-26T06:36:23.754Z,7.80
2017-10-26T06:38:50.595Z,10.40
2017-10-26T06:41:17.482Z,8.97
2017-10-26T06:43:43.610Z,7.07
2017-10-26T06:46:09.794Z,8.70
2017-10-26T06:48:36.667Z,9.40
2017-10-26T06:51:02.865Z,7.70
2017-10-26T06:53:30.017Z,9.60
2017-10-26T06:55:56.317Z,7.63
2017-10-26T06:58:22.503Z,9.07
2017-10-26T07:00:48.677Z,7.33
2017-10-26T07:03:15.565Z,12.53
2017-10-26T07:05:41.742Z,9.67
2017-10-26T07:08:08.824Z,8.60
2017-10-26T07:10:35.004Z,8.63
2017-10-26T07:13:01.210Z,9.13
2017-10-26T07:15:27.349Z,8.90
2017-10-26T07:17:53.479Z,9.30
2017-10-26T07:20:19.700Z,8.27
2017-10-26T07:22:45.971Z,8.60
2017-10-26T07:25:12.068Z,11.03
2017-10-26T07:27:38.284Z,14.43
2017-10-26T07:30:04.473Z,11.03
2017-10-26T07:32:30.643Z,13.37
2017-10-26T07:34:56.856Z,16.63
2017-10-26T07:37:23.016Z,10.07
2017-10-26T07:39:49.953Z,10.10
2017-10-26T07:42:16.829Z,12.33
2017-10-26T07:44:42.973Z,25.43
2017-10-26T07:47:09.102Z,18.37
2017-10-26T07:49:35.351Z,18.10
2017-10-26T07:52:01.547Z,14.13
2017-10-26T07:54:27.690Z,21.00
2017-10-26T07:56:53.915Z,22.90
2017-10-26T07:59:20.071Z,23.53
2017-10-26T08:01:46.992Z,26.33
2017-10-26T08:04:13.286Z,16.70
2017-10-26T08:06:39.451Z,18.60
2017-10-26T08:09:05.807Z,14.90
2017-10-26T08:11:32.190Z,20.50
2017-10-26T08:13:58.335Z,18.30
2017-10-26T08:16:24.914Z,19.80
2017-10-26T08:18:51.113Z,16.93
2017-10-26T08:21:18.101Z,19.87
2017-10-26T08:23:44.354Z,16.43
2017-10-26T08:26:10.498Z,16.53
2017-10-26T08:28:37.410Z,17.23
2017-10-26T08:31:03.613Z,29.03
2017-10-26T08:33:29.787Z,44.80
2017-10-26T08:35:55.927Z,50.20
2017-10-26T08:38:22.288Z,54.70
2017-10-26T08:40:48.606Z,46.30
2017-10-26T08:43:15.489Z,28.17
2017-10-26T08:45:41.778Z,33.40
2017-10-26T08:48:08.740Z,28.50
2017-10-26T08:50:35.122Z,18.10
2017-10-26T08:53:01.294Z,11.00
2017-10-26T08:55:27.637Z,11.63
2017-10-26T08:57:53.785Z,13.73
2017-10-26T09:00:19.927Z,10.87
2017-10-26T09:02:46.127Z,10.00
2017-10-26T09:05:12.350Z,10.80
2017-10-26T09:07:38.554Z,11.10
2017-10-26T09:10:04.709Z,8.37
2017-10-26T09:12:30.869Z,9.43
2017-10-26T09:14:57.192Z,8.77
2017-10-26T09:17:24.161Z,9.17
2017-10-26T09:19:51.102Z,8.07
2017-10-26T09:22:18.032Z,8.00
2017-10-26T09:24:44.234Z,8.00
2017-10-26T09:27:10.518Z,8.37
2017-10-26T09:29:36.676Z,7.50
2017-10-26T09:32:02.871Z,7.10
2017-10-26T09:34:29.108Z,7.80
2017-10-26T09:36:55.215Z,6.90
2017-10-26T09:39:21.468Z,9.43
2017-10-26T09:41:47.615Z,5.97
2017-10-26T09:44:13.893Z,6.40
2017-10-26T09:46:40.093Z,5.93
2017-10-26T09:49:06.295Z,6.63
2017-10-26T09:51:32.467Z,4.97
2017-10-26T09:53:58.612Z,4.80
2017-10-26T09:56:24.691Z,5.93
2017-10-26T09:58:50.846Z,4.50
2017-10-26T10:01:17.780Z,5.80
2017-10-26T10:03:44.703Z,4.00
2017-10-26T10:06:10.853Z,4.43
2017-10-26T10:08:37.840Z,4.83
2017-10-26T10:11:04.029Z,4.47
2017-10-26T10:13:30.263Z,5.23
2017-10-26T10:15:56.522Z,5.30
2017-10-26T10:18:22.657Z,4.03
2017-10-26T10:20:48.860Z,4.60
2017-10-26T10:23:15.081Z,3.90
2017-10-26T10:25:41.341Z,4.30
2017-10-26T10:28:07.540Z,4.20
2017-10-26T10:30:33.688Z,4.20
2017-10-26T10:32:59.880Z,4.30
2017-10-26T10:35:25.943Z,5.40
2017-10-26T10:37:52.105Z,4.00
2017-10-26T10:40:19.065Z,3.80
2017-10-26T10:42:45.282Z,3.57
2017-10-26T10:45:12.118Z,3.60
2017-10-26T10:47:39.012Z,3.50
2017-10-26T10:50:05.423Z,3.57
2017-10-26T10:52:31.715Z,4.03
2017-10-26T10:54:58.726Z,3.17
2017-10-26T10:57:24.900Z,4.10
2017-10-26T10:59:57.499Z,4.40
2017-10-26T11:02:23.656Z,4.13
2017-10-26T11:04:49.963Z,5.33
2017-10-26T11:07:16.097Z,3.30
2017-10-26T11:09:42.293Z,2.93
2017-10-26T11:12:08.562Z,4.60
2017-10-26T11:14:34.719Z,2.57
2017-10-26T11:17:00.995Z,2.73
2017-10-26T11:19:27.176Z,2.80
2017-10-26T11:21:54.151Z,3.10
2017-10-26T11:24:20.308Z,2.90
2017-10-26T11:26:46.481Z,3.10
2017-10-26T11:29:13.959Z,3.20
2017-10-26T11:31:40.113Z,3.10
2017-10-26T11:34:06.332Z,2.63
2017-10-26T11:36:32.599Z,2.40
2017-10-26T11:38:59.624Z,2.50
2017-10-26T11:41:25.834Z,2.70
2017-10-26T11:43:51.992Z,2.60
2017-10-26T11:46:18.198Z,2.20
2017-10-26T11:48:44.330Z,3.10
2017-10-26T11:51:10.685Z,3.20
2017-10-26T11:53:37.722Z,3.20
2017-10-26T11:56:03.909Z,2.90
2017-10-26T11:58:30.237Z,2.50
2017-10-26T12:00:56.425Z,2.43
2017-10-26T12:03:23.345Z,2.30
2017-10-26T12:05:49.700Z,2.50
2017-10-26T12:08:16.597Z,2.50
2017-10-26T12:10:42.775Z,2.37
2017-10-26T12:13:09.000Z,2.40
2017-10-26T12:15:35.227Z,3.00
2017-10-26T12:18:02.144Z,1.90
2017-10-26T12:20:28.268Z,2.27
2017-10-26T12:22:54.433Z,2.77
2017-10-26T12:25:20.588Z,2.40
2017-10-26T12:27:46.874Z,2.57
2017-10-26T12:30:13.786Z,2.40
2017-10-26T12:32:39.919Z,2.00
2017-10-26T12:35:06.125Z,1.90
2017-10-26T12:37:32.326Z,1.80
2017-10-26T12:39:58.667Z,4.00
2017-10-26T12:42:24.916Z,2.47
2017-10-26T12:44:51.091Z,2.37
2017-10-26T12:47:17.354Z,2.17
2017-10-26T12:49:43.537Z,3.90
2017-10-26T12:52:09.715Z,3.10
2017-10-26T12:54:35.896Z,6.80
2017-10-26T12:57:02.065Z,2.30
2017-10-26T12:59:28.299Z,1.80
2017-10-26T13:01:54.497Z,1.87
2017-10-26T13:04:20.704Z,2.57
2017-10-26T13:06:46.813Z,2.03
2017-10-26T13:09:14.337Z,2.17
2017-10-26T13:11:40.502Z,1.50
2017-10-26T13:14:06.695Z,1.80
2017-10-26T13:16:32.979Z,1.90
2017-10-26T13:18:59.152Z,1.30
2017-10-26T13:21:26.145Z,3.37
2017-10-26T13:23:52.381Z,1.83
2017-10-26T13:26:18.544Z,1.97
2017-10-26T13:28:45.530Z,2.10
2017-10-26T13:31:11.759Z,1.90
2017-10-26T13:33:37.962Z,2.03
2017-10-26T13:36:04.207Z,1.80
2017-10-26T13:38:30.406Z,1.90
2017-10-26T13:40:57.420Z,2.13
2017-10-26T13:43:23.660Z,2.13
2017-10-26T13:45:49.856Z,3.90
2017-10-26T13:48:16.089Z,3.00
2017-10-26T13:50:42.295Z,3.43
2017-10-26T13:53:08.428Z,2.60
2017-10-26T13:55:34.968Z,3.67
2017-10-26T13:58:01.172Z,3.43
2017-10-26T14:00:27.552Z,2.83
2017-10-26T14:02:53.829Z,2.77
2017-10-26T14:05:20.157Z,2.77
2017-10-26T14:07:47.043Z,2.07
2017-10-26T14:10:13.328Z,2.30
2017-10-26T14:12:40.480Z,3.73
2017-10-26T14:15:06.729Z,2.30
2017-10-26T14:17:33.001Z,2.93
2017-10-26T14:19:59.176Z,2.80
2017-10-26T14:22:25.511Z,2.33
2017-10-26T14:24:51.661Z,2.40
2017-10-26T14:27:17.941Z,2.60
2017-10-26T14:29:44.827Z,2.83
2017-10-26T14:32:11.849Z,2.90
2017-10-26T14:34:38.215Z,6.33
2017-10-26T14:37:04.351Z,2.70
2017-10-26T14:39:30.678Z,2.90
2017-10-26T14:41:57.064Z,2.17
2017-10-26T14:44:23.300Z,5.93
2017-10-26T14:46:49.506Z,2.27
2017-10-26T14:49:17.254Z,2.70
2017-10-26T14:51:44.230Z,3.37
2017-10-26T14:54:10.441Z,2.50
2017-10-26T14:56:37.499Z,4.20
2017-10-26T14:59:03.706Z,3.70
2017-10-26T15:01:30.655Z,4.13
2017-10-26T15:03:56.959Z,3.60
2017-10-26T15:06:23.220Z,4.47
2017-10-26T15:08:49.499Z,3.23
2017-10-26T15:11:15.754Z,4.93
2017-10-26T15:13:42.781Z,3.03
2017-10-26T15:16:09.014Z,2.77
2017-10-26T15:18:35.321Z,3.43
2017-10-26T15:21:01.579Z,3.47
2017-10-26T15:23:28.868Z,4.23
2017-10-26T15:25:55.714Z,3.00
2017-10-26T15:28:21.880Z,7.40
2017-10-26T15:30:48.118Z,3.63
2017-10-26T15:33:14.346Z,3.97
2017-10-26T15:35:40.881Z,2.77
2017-10-26T15:38:07.162Z,3.43
2017-10-26T15:40:33.421Z,2.60
2017-10-26T15:42:59.567Z,2.47
2017-10-26T15:45:25.925Z,3.83
2017-10-26T15:47:52.230Z,2.33
2017-10-26T15:50:19.137Z,4.20
2017-10-26T15:52:45.281Z,2.47
2017-10-26T15:55:11.614Z,2.30
2017-10-26T15:57:37.774Z,2.97
2017-10-26T16:00:04.012Z,3.13
2017-10-26T16:02:30.220Z,4.40
2017-10-26T16:04:57.165Z,3.20
2017-10-26T16:07:24.169Z,2.70
2017-10-26T16:09:50.349Z,2.57
2017-10-26T16:12:16.617Z,2.83
2017-10-26T16:14:42.885Z,2.37
2017-10-26T16:17:09.758Z,3.27
2017-10-26T16:19:35.911Z,2.50
2017-10-26T16:22:02.154Z,2.80
2017-10-26T16:24:28.365Z,3.13
2017-10-26T16:26:54.487Z,2.67
2017-10-26T16:29:21.046Z,2.43
2017-10-26T16:31:47.190Z,7.23
2017-10-26T16:34:14.279Z,4.27
2017-10-26T16:36:40.540Z,4.50
2017-10-26T16:39:06.727Z,6.60
2017-10-26T16:41:33.007Z,8.07
2017-10-26T16:43:59.412Z,10.20
2017-10-26T16:46:25.639Z,11.10
2017-10-26T16:48:51.837Z,9.30
2017-10-26T16:51:17.988Z,6.70
2017-10-26T16:53:44.143Z,8.73
2017-10-26T16:56:10.502Z,4.17
2017-10-26T16:58:36.794Z,4.17
2017-10-26T17:01:02.949Z,4.43
2017-10-26T17:03:29.861Z,3.33
2017-10-26T17:05:56.124Z,3.40
2017-10-26T17:08:22.373Z,2.83
2017-10-26T17:10:48.528Z,3.33
2017-10-26T17:13:14.722Z,3.57
2017-10-26T17:15:41.084Z,2.93
2017-10-26T17:18:07.360Z,2.50
2017-10-26T17:20:34.391Z,12.00
2017-10-26T17:23:01.405Z,2.57
2017-10-26T17:25:27.674Z,2.87
2017-10-26T17:27:54.672Z,2.33
2017-10-26T17:30:20.862Z,6.00
2017-10-26T17:32:47.125Z,4.00
2017-10-26T17:35:13.396Z,3.03
2017-10-26T17:37:40.332Z,3.67
2017-10-26T17:40:07.298Z,3.10
2017-10-26T17:42:33.564Z,3.57
2017-10-26T17:44:59.741Z,2.60
2017-10-26T17:47:26.618Z,4.87
2017-10-26T17:49:52.947Z,8.63
2017-10-26T17:52:19.120Z,8.10
2017-10-26T17:54:46.217Z,6.93
2017-10-26T17:57:12.420Z,5.73
2017-10-26T17:59:38.585Z,6.20
2017-10-26T18:02:04.743Z,7.20
2017-10-26T18:04:31.121Z,5.03
2017-10-26T18:06:58.175Z,4.37
2017-10-26T18:09:24.484Z,3.37
2017-10-26T18:11:50.833Z,5.33
2017-10-26T18:14:17.092Z,9.93
2017-10-26T18:16:43.487Z,3.60
2017-10-26T18:19:09.752Z,3.50
2017-10-26T18:21:36.063Z,3.50
2017-10-26T18:24:02.313Z,3.13
2017-10-26T18:26:28.664Z,3.80
2017-10-26T18:28:55.789Z,4.90
2017-10-26T18:31:21.992Z,4.20
2017-10-26T18:33:48.418Z,4.83
2017-10-26T18:36:14.763Z,4.30
2017-10-26T18:38:40.905Z,4.27
2017-10-26T18:41:07.108Z,4.27
2017-10-26T18:43:33.329Z,4.13
2017-10-26T18:45:59.508Z,4.30
2017-10-26T18:48:26.476Z,3.43
2017-10-26T18:50:52.933Z,4.53
2017-10-26T18:53:19.264Z,3.13
2017-10-26T18:55:45.578Z,3.50
2017-10-26T18:58:11.810Z,4.33
2017-10-26T19:00:38.142Z,3.73
2017-10-26T19:03:04.356Z,4.00
2017-10-26T19:05:30.676Z,3.47
2017-10-26T19:07:56.973Z,4.60
2017-10-26T19:10:23.689Z,4.50
2017-10-26T19:12:50.127Z,3.80
2017-10-26T19:15:16.448Z,6.10
2017-10-26T19:17:42.888Z,5.20
2017-10-26T19:20:09.044Z,5.20
2017-10-26T19:22:36.040Z,4.93
2017-10-26T19:25:02.394Z,4.87
2017-10-26T19:27:28.530Z,4.33
2017-10-26T19:29:55.468Z,4.80
2017-10-26T19:32:21.815Z,4.63
2017-10-26T19:34:48.760Z,5.43
2017-10-26T19:37:14.928Z,5.13
2017-10-26T19:39:41.175Z,5.57
2017-10-26T19:42:07.336Z,5.60
2017-10-26T19:44:33.670Z,5.30
2017-10-26T19:47:00.642Z,4.80
2017-10-26T19:49:26.785Z,5.20
2017-10-26T19:51:52.974Z,5.97
2017-10-26T19:54:20.005Z,6.53
2017-10-26T19:56:46.185Z,5.73
2017-10-26T19:59:12.424Z,5.73
2017-10-26T20:01:38.559Z,6.00
2017-10-26T20:04:04.828Z,6.53
2017-10-26T20:06:32.212Z,6.63
2017-10-26T20:08:58.384Z,10.40
2017-10-26T20:11:24.655Z,6.37
2017-10-26T20:13:50.947Z,7.27
2017-10-26T20:16:17.524Z,6.17
2017-10-26T20:18:43.745Z,6.93
2017-10-26T20:21:09.973Z,8.77
2017-10-26T20:23:36.131Z,7.80
2017-10-26T20:26:02.284Z,14.10
2017-10-26T20:28:28.552Z,14.40
2017-10-26T20:30:54.734Z,10.07
2017-10-26T20:33:21.022Z,9.40
2017-10-26T20:35:47.190Z,9.60
2017-10-26T20:38:14.173Z,11.23
2017-10-26T20:40:40.393Z,9.67
2017-10-26T20:43:06.576Z,9.70
2017-10-26T20:45:32.820Z,9.20
2017-10-26T20:47:59.896Z,12.50
2017-10-26T20:50:32.253Z,9.07
2017-10-26T20:53:05.480Z,10.20
2017-10-26T20:55:37.831Z,8.90
2017-10-26T20:58:10.305Z,8.13
2017-10-26T21:00:42.914Z,8.97
2017-10-26T21:03:15.308Z,8.40
2017-10-26T21:05:47.694Z,8.73
2017-10-26T21:08:14.758Z,8.00
2017-10-26T21:10:47.937Z,12.23
2017-10-26T21:13:20.969Z,8.33
2017-10-26T21:15:47.217Z,10.87
2017-10-26T21:18:13.457Z,12.37
2017-10-26T21:20:39.690Z,9.67
2017-10-26T21:23:06.561Z,14.50
2017-10-26T21:25:33.474Z,11.23
2017-10-26T21:28:00.679Z,10.20
2017-10-26T21:30:27.145Z,9.90
2017-10-26T21:32:53.358Z,11.47
2017-10-26T21:35:19.620Z,10.63
2017-10-26T21:37:46.608Z,8.37
2017-10-26T21:40:12.990Z,9.43
2017-10-26T21:42:39.239Z,9.33
2017-10-26T21:45:05.453Z,12.70
2017-10-26T21:47:32.323Z,9.47
2017-10-26T21:49:58.700Z,12.83
2017-10-26T21:52:24.914Z,9.73
2017-10-26T21:54:51.191Z,10.63
2017-10-26T21:57:18.159Z,11.50
2017-10-26T21:59:44.422Z,10.00
2017-10-26T22:02:10.717Z,8.63
2017-10-26T22:04:36.956Z,11.97
2017-10-26T22:07:03.270Z,8.93
2017-10-26T22:09:29.502Z,11.63
2017-10-26T22:11:55.936Z,12.83
2017-10-26T22:14:22.253Z,12.13
2017-10-26T22:16:48.561Z,11.60
2017-10-26T22:19:15.515Z,14.53
2017-10-26T22:21:42.613Z,12.40
2017-10-26T22:24:08.883Z,13.30
2017-10-26T22:26:35.778Z,15.20
2017-10-26T22:29:01.983Z,16.70
2017-10-26T22:31:28.137Z,10.83
2017-10-26T22:33:54.412Z,13.70
2017-10-26T22:36:20.980Z,14.90
2017-10-26T22:38:47.337Z,15.17
2017-10-26T22:41:13.536Z,13.60
2017-10-26T22:43:39.799Z,12.90
2017-10-26T22:46:06.094Z,10.13
2017-10-26T22:48:32.391Z,9.73
2017-10-26T22:50:58.570Z,10.13
2017-10-26T22:53:24.830Z,11.90
2017-10-26T22:55:51.946Z,14.30
2017-10-26T22:58:18.230Z,12.23
2017-10-26T23:00:44.458Z,14.27
2017-10-26T23:03:10.640Z,12.37
2017-10-26T23:05:36.871Z,19.93
2017-10-26T23:08:03.070Z,15.00
2017-10-26T23:10:29.305Z,13.50
2017-10-26T23:12:55.467Z,16.13
2017-10-26T23:15:22.367Z,12.73
2017-10-26T23:17:48.679Z,10.37
2017-10-26T23:20:14.880Z,13.03
2017-10-26T23:22:41.111Z,15.03
2017-10-26T23:25:07.388Z,13.80
2017-10-26T23:27:33.653Z,15.00
2017-10-26T23:30:00.613Z,10.20
2017-10-26T23:32:26.776Z,10.60
2017-10-26T23:34:52.971Z,8.40
2017-10-26T23:37:19.185Z,9.53
2017-10-26T23:39:45.481Z,9.70
2017-10-26T23:42:11.784Z,12.50
2017-10-26T23:44:37.989Z,13.93
2017-10-26T23:47:04.183Z,19.37
2017-10-26T23:49:31.163Z,10.73
2017-10-26T23:51:57.477Z,13.33
2017-10-26T23:54:23.681Z,16.60
2017-10-26T23:56:50.632Z,15.57
2017-10-26T23:59:17.636Z,18.83
